Fort St. John

Airport
ICAO code: 
CYXJ
IATA Code: 
YXJ
Summary
ICAO Region: 
NAM
Territory: 
Location: 
Fort St. John, British Columbia,
Serving: 
Fort St. John
Elevation: 
2280 ft
Coordinates: 
Aerial View: 
56° 14' 12.93" N, 120° 44' 25.146" W
Metar
Observation
CYXJ 272037Z 12010KT 1 1/4SM -SN BKN008 OVC020 M04/M07 A2974 RMK SC7SC1 SLP113
Station
Fort St John, B. C.
Date/Time
2021-11-27 20:37:00
Wind direction
120°
Wind speed
10 kts
Lowest cloud amount
broken clouds
Temperature
-4°C
Dew point
-7°C
Humidity
79%
Weather condition
light snow

Description

Fort St. John Airport, North Peace Regional Airport, or North Peace Airport, is located at Fort St. John, British Columbia, Canada.

Climatology

Humid Continental climate (Köppen climate classification Dfb) - Variable weather patterns and a large seasonal temperature variance. Summers are often warm and humid with frequent thunderstorms and winters can be very cold with frequent snowfall and persistent snow cover.

Runways

Designator Length Width Surface Rops
2/20 2042 61 ASP Yes/Yes
11/29 2103 46 ASP Yes/Yes
Airport map: 
Aerial View: 

Accidents and Serious Incidents at or in the vicinity of CYXJ

SKYbrary Partners:

Safety knowledge contributed by: